sensor_id;sensor_type;location;lat;lon;timestamp;pressure;altitude;pressure_sealevel;temperature;humidity
33161;BME280;19522;45.656;11.302;2023-04-15T00:01:21;97234.28;;;5.92;93.92
33161;BME280;19522;45.656;11.302;2023-04-15T00:03:50;97238.66;;;6.08;93.06
33161;BME280;19522;45.656;11.302;2023-04-15T00:06:16;97213.19;;;5.96;92.84
33161;BME280;19522;45.656;11.302;2023-04-15T00:08:42;97226.13;;;6.00;92.12
33161;BME280;19522;45.656;11.302;2023-04-15T00:11:07;97212.94;;;5.90;91.21
33161;BME280;19522;45.656;11.302;2023-04-15T00:13:33;97208.66;;;5.96;90.34
33161;BME280;19522;45.656;11.302;2023-04-15T00:15:59;97224.16;;;6.09;89.29
33161;BME280;19522;45.656;11.302;2023-04-15T00:18:25;97222.22;;;6.03;88.35
33161;BME280;19522;45.656;11.302;2023-04-15T00:20:50;97208.03;;;5.79;90.42
33161;BME280;19522;45.656;11.302;2023-04-15T00:23:16;97199.53;;;5.82;90.79
33161;BME280;19522;45.656;11.302;2023-04-15T00:25:42;97216.44;;;5.91;90.85
33161;BME280;19522;45.656;11.302;2023-04-15T00:28:07;97220.28;;;5.82;91.38
33161;BME280;19522;45.656;11.302;2023-04-15T00:30:33;97161.78;;;5.60;91.10
33161;BME280;19522;45.656;11.302;2023-04-15T00:33:00;97203.19;;;5.74;90.67
33161;BME280;19522;45.656;11.302;2023-04-15T00:35:26;97190.00;;;5.65;91.50
33161;BME280;19522;45.656;11.302;2023-04-15T00:37:52;97207.28;;;5.55;92.32
33161;BME280;19522;45.656;11.302;2023-04-15T00:40:20;97204.69;;;5.47;92.33
33161;BME280;19522;45.656;11.302;2023-04-15T00:42:46;97208.84;;;5.65;92.67
33161;BME280;19522;45.656;11.302;2023-04-15T00:45:11;97206.94;;;5.58;90.85
33161;BME280;19522;45.656;11.302;2023-04-15T00:47:38;97212.97;;;5.30;92.51
33161;BME280;19522;45.656;11.302;2023-04-15T00:50:06;97206.94;;;5.28;92.84
33161;BME280;19522;45.656;11.302;2023-04-15T00:52:32;97194.47;;;4.97;93.62
33161;BME280;19522;45.656;11.302;2023-04-15T00:54:58;97210.50;;;4.76;95.69
33161;BME280;19522;45.656;11.302;2023-04-15T00:57:24;97209.66;;;4.90;96.79
33161;BME280;19522;45.656;11.302;2023-04-15T00:59:51;97193.56;;;5.05;94.67
33161;BME280;19522;45.656;11.302;2023-04-15T01:02:17;97190.50;;;5.08;94.33
33161;BME280;19522;45.656;11.302;2023-04-15T01:04:42;97204.22;;;5.13;94.63
33161;BME280;19522;45.656;11.302;2023-04-15T01:07:08;97141.63;;;4.51;94.75
33161;BME280;19522;45.656;11.302;2023-04-15T01:09:33;97193.00;;;5.10;94.28
33161;BME280;19522;45.656;11.302;2023-04-15T01:11:59;97216.94;;;5.35;92.78
33161;BME280;19522;45.656;11.302;2023-04-15T01:14:24;97216.94;;;5.35;92.06
33161;BME280;19522;45.656;11.302;2023-04-15T01:16:51;97208.25;;;5.33;92.16
33161;BME280;19522;45.656;11.302;2023-04-15T01:19:17;97193.75;;;5.04;92.54
33161;BME280;19522;45.656;11.302;2023-04-15T01:21:43;97207.56;;;5.15;93.34
33161;BME280;19522;45.656;11.302;2023-04-15T01:24:09;97195.78;;;5.02;93.13
33161;BME280;19522;45.656;11.302;2023-04-15T01:26:39;97222.97;;;5.22;92.15
33161;BME280;19522;45.656;11.302;2023-04-15T01:29:05;97223.66;;;5.39;91.17
33161;BME280;19522;45.656;11.302;2023-04-15T01:31:31;97220.69;;;5.19;91.84
33161;BME280;19522;45.656;11.302;2023-04-15T01:33:57;97218.16;;;5.17;92.24
33161;BME280;19522;45.656;11.302;2023-04-15T01:36:22;97213.06;;;5.22;91.33
33161;BME280;19522;45.656;11.302;2023-04-15T01:38:48;97226.53;;;5.22;91.60
33161;BME280;19522;45.656;11.302;2023-04-15T01:41:13;97182.44;;;4.55;93.24
33161;BME280;19522;45.656;11.302;2023-04-15T01:43:39;97234.56;;;4.69;94.13
33161;BME280;19522;45.656;11.302;2023-04-15T01:46:04;97209.00;;;4.50;93.45
33161;BME280;19522;45.656;11.302;2023-04-15T01:48:30;97226.78;;;4.74;93.57
33161;BME280;19522;45.656;11.302;2023-04-15T01:50:57;97228.88;;;5.02;92.38
33161;BME280;19522;45.656;11.302;2023-04-15T01:53:23;97226.16;;;4.87;92.52
33161;BME280;19522;45.656;11.302;2023-04-15T01:55:49;97233.44;;;5.02;92.73
33161;BME280;19522;45.656;11.302;2023-04-15T01:58:16;97232.91;;;5.21;91.07
33161;BME280;19522;45.656;11.302;2023-04-15T02:00:42;97232.78;;;4.99;91.81
33161;BME280;19522;45.656;11.302;2023-04-15T02:03:08;97233.16;;;4.96;92.51
33161;BME280;19522;45.656;11.302;2023-04-15T02:05:34;97230.44;;;4.96;92.67
33161;BME280;19522;45.656;11.302;2023-04-15T02:08:00;97232.13;;;4.97;92.71
33161;BME280;19522;45.656;11.302;2023-04-15T02:10:25;97228.88;;;5.02;91.94
33161;BME280;19522;45.656;11.302;2023-04-15T02:12:51;97235.41;;;5.08;91.71
33161;BME280;19522;45.656;11.302;2023-04-15T02:15:17;97233.63;;;5.15;90.48
33161;BME280;19522;45.656;11.302;2023-04-15T02:17:42;97206.31;;;4.88;90.75
33161;BME280;19522;45.656;11.302;2023-04-15T02:20:10;97239.94;;;4.92;91.81
33161;BME280;19522;45.656;11.302;2023-04-15T02:22:36;97240.28;;;4.89;91.12
33161;BME280;19522;45.656;11.302;2023-04-15T02:25:02;97230.25;;;4.83;91.19
33161;BME280;19522;45.656;11.302;2023-04-15T02:27:27;97233.72;;;4.68;92.37
33161;BME280;19522;45.656;11.302;2023-04-15T02:29:53;97230.75;;;4.63;92.75
33161;BME280;19522;45.656;11.302;2023-04-15T02:32:18;97232.44;;;4.64;92.71
33161;BME280;19522;45.656;11.302;2023-04-15T02:34:46;97235.41;;;4.70;92.13
33161;BME280;19522;45.656;11.302;2023-04-15T02:37:13;97232.25;;;4.66;92.38
33161;BME280;19522;45.656;11.302;2023-04-15T02:39:39;97202.91;;;4.56;92.17
33161;BME280;19522;45.656;11.302;2023-04-15T02:42:04;97197.78;;;4.46;92.76
33161;BME280;19522;45.656;11.302;2023-04-15T02:44:33;97239.22;;;4.75;92.41
33161;BME280;19522;45.656;11.302;2023-04-15T02:47:00;97239.75;;;4.71;92.65
33161;BME280;19522;45.656;11.302;2023-04-15T02:49:26;97220.22;;;4.53;92.18
33161;BME280;19522;45.656;11.302;2023-04-15T02:51:54;97248.09;;;4.38;93.82
33161;BME280;19522;45.656;11.302;2023-04-15T02:54:20;97238.34;;;4.36;94.62
33161;BME280;19522;45.656;11.302;2023-04-15T02:56:47;97223.69;;;4.16;95.67
33161;BME280;19522;45.656;11.302;2023-04-15T02:59:14;97219.53;;;4.05;96.50
33161;BME280;19522;45.656;11.302;2023-04-15T03:01:39;97244.97;;;4.26;96.01
33161;BME280;19522;45.656;11.302;2023-04-15T03:04:05;97226.38;;;4.16;95.78
33161;BME280;19522;45.656;11.302;2023-04-15T03:06:33;97230.13;;;4.07;95.39
33161;BME280;19522;45.656;11.302;2023-04-15T03:08:58;97232.44;;;4.10;95.16
33161;BME280;19522;45.656;11.302;2023-04-15T03:11:25;97251.72;;;4.21;95.13
33161;BME280;19522;45.656;11.302;2023-04-15T03:13:51;97255.84;;;4.32;94.92
33161;BME280;19522;45.656;11.302;2023-04-15T03:16:17;97249.19;;;4.43;93.65
33161;BME280;19522;45.656;11.302;2023-04-15T03:18:42;97248.63;;;4.56;92.58
33161;BME280;19522;45.656;11.302;2023-04-15T03:21:08;97235.06;;;4.49;92.45
33161;BME280;19522;45.656;11.302;2023-04-15T03:23:33;97248.91;;;4.61;91.95
33161;BME280;19522;45.656;11.302;2023-04-15T03:26:02;97248.91;;;4.61;91.97
33161;BME280;19522;45.656;11.302;2023-04-15T03:28:29;97226.69;;;4.44;91.76
33161;BME280;19522;45.656;11.302;2023-04-15T03:30:55;97251.00;;;4.51;91.94
33161;BME280;19522;45.656;11.302;2023-04-15T03:33:20;97178.72;;;4.10;91.45
33161;BME280;19522;45.656;11.302;2023-04-15T03:35:46;97239.56;;;4.26;92.73
33161;BME280;19522;45.656;11.302;2023-04-15T03:38:11;97258.84;;;4.38;93.84
33161;BME280;19522;45.656;11.302;2023-04-15T03:40:39;97254.69;;;4.27;94.27
33161;BME280;19522;45.656;11.302;2023-04-15T03:43:04;97260.78;;;4.20;95.02
33161;BME280;19522;45.656;11.302;2023-04-15T03:45:30;97233.50;;;4.09;94.52
33161;BME280;19522;45.656;11.302;2023-04-15T03:47:56;97262.75;;;4.27;95.59
33161;BME280;19522;45.656;11.302;2023-04-15T03:50:21;97262.31;;;4.15;95.97
33161;BME280;19522;45.656;11.302;2023-04-15T03:52:47;97239.56;;;4.02;95.92
33161;BME280;19522;45.656;11.302;2023-04-15T03:55:12;97265.56;;;4.33;96.31
33161;BME280;19522;45.656;11.302;2023-04-15T03:57:38;97245.19;;;4.16;96.42
33161;BME280;19522;45.656;11.302;2023-04-15T04:00:05;97267.56;;;4.08;97.78
33161;BME280;19522;45.656;11.302;2023-04-15T04:02:30;97249.34;;;3.95;97.62
33161;BME280;19522;45.656;11.302;2023-04-15T04:04:56;97269.28;;;4.32;96.57
33161;BME280;19522;45.656;11.302;2023-04-15T04:07:22;97263.91;;;4.56;95.04
33161;BME280;19522;45.656;11.302;2023-04-15T04:09:48;97263.69;;;4.65;93.57
33161;BME280;19522;45.656;11.302;2023-04-15T04:12:14;97204.63;;;4.26;94.04
33161;BME280;19522;45.656;11.302;2023-04-15T04:14:39;97256.72;;;4.48;94.06
33161;BME280;19522;45.656;11.302;2023-04-15T04:17:05;97265.78;;;4.55;94.19
33161;BME280;19522;45.656;11.302;2023-04-15T04:19:30;97265.59;;;4.57;94.45
33161;BME280;19522;45.656;11.302;2023-04-15T04:21:56;97269.34;;;4.71;93.84
33161;BME280;19522;45.656;11.302;2023-04-15T04:24:22;97268.19;;;4.88;92.25
33161;BME280;19522;45.656;11.302;2023-04-15T04:26:47;97249.75;;;4.85;91.39
33161;BME280;19522;45.656;11.302;2023-04-15T04:29:13;97264.41;;;4.97;91.14
33161;BME280;19522;45.656;11.302;2023-04-15T04:31:38;97263.88;;;5.02;91.03
33161;BME280;19522;45.656;11.302;2023-04-15T04:34:04;97269.09;;;5.04;91.11
33161;BME280;19522;45.656;11.302;2023-04-15T04:36:29;97254.03;;;4.94;91.04
33161;BME280;19522;45.656;11.302;2023-04-15T04:38:55;97255.91;;;5.09;90.20
33161;BME280;19522;45.656;11.302;2023-04-15T04:41:20;97271.81;;;5.19;89.56
33161;BME280;19522;45.656;11.302;2023-04-15T04:43:45;97261.22;;;5.17;89.26
33161;BME280;19522;45.656;11.302;2023-04-15T04:46:11;97271.06;;;5.25;89.40
33161;BME280;19522;45.656;11.302;2023-04-15T04:48:36;97243.84;;;5.05;88.72
33161;BME280;19522;45.656;11.302;2023-04-15T04:51:02;97271.84;;;5.34;88.01
33161;BME280;19522;45.656;11.302;2023-04-15T04:53:28;97277.22;;;5.49;87.99
33161;BME280;19522;45.656;11.302;2023-04-15T04:55:53;97284.28;;;5.65;87.41
33161;BME280;19522;45.656;11.302;2023-04-15T04:58:19;97272.31;;;5.52;87.38
33161;BME280;19522;45.656;11.302;2023-04-15T05:00:44;97283.81;;;5.46;87.53
33161;BME280;19522;45.656;11.302;2023-04-15T05:03:10;97282.53;;;5.42;87.36
33161;BME280;19522;45.656;11.302;2023-04-15T05:05:35;97284.34;;;5.41;86.87
33161;BME280;19522;45.656;11.302;2023-04-15T05:08:04;97287.50;;;5.45;86.87
33161;BME280;19522;45.656;11.302;2023-04-15T05:10:30;97285.47;;;5.47;86.64
33161;BME280;19522;45.656;11.302;2023-04-15T05:12:56;97255.19;;;5.30;86.93
33161;BME280;19522;45.656;11.302;2023-04-15T05:15:21;97261.22;;;5.32;86.38
33161;BME280;19522;45.656;11.302;2023-04-15T05:17:47;97288.56;;;5.59;86.02
33161;BME280;19522;45.656;11.302;2023-04-15T05:20:13;97285.38;;;5.40;86.49
33161;BME280;19522;45.656;11.302;2023-04-15T05:22:38;97285.47;;;5.47;86.32
33161;BME280;19522;45.656;11.302;2023-04-15T05:25:04;97291.53;;;5.49;86.38
33161;BME280;19522;45.656;11.302;2023-04-15T05:27:29;97271.75;;;5.42;86.27
33161;BME280;19522;45.656;11.302;2023-04-15T05:29:55;97287.25;;;5.55;86.35
33161;BME280;19522;45.656;11.302;2023-04-15T05:32:20;97276.38;;;5.48;86.47
33161;BME280;19522;45.656;11.302;2023-04-15T05:34:46;97285.59;;;5.54;86.75
33161;BME280;19522;45.656;11.302;2023-04-15T05:37:23;97295.72;;;5.67;85.49
33161;BME280;19522;45.656;11.302;2023-04-15T05:39:49;97294.78;;;5.59;86.04
33161;BME280;19522;45.656;11.302;2023-04-15T05:42:15;97290.63;;;5.57;86.04
33161;BME280;19522;45.656;11.302;2023-04-15T05:44:41;97286.34;;;5.63;85.91
33161;BME280;19522;45.656;11.302;2023-04-15T05:47:06;97288.00;;;5.78;85.60
33161;BME280;19522;45.656;11.302;2023-04-15T05:49:32;97295.91;;;5.80;85.86
33161;BME280;19522;45.656;11.302;2023-04-15T05:51:58;97279.75;;;5.65;86.62
33161;BME280;19522;45.656;11.302;2023-04-15T05:54:23;97286.41;;;5.69;86.45
33161;BME280;19522;45.656;11.302;2023-04-15T05:56:50;97296.53;;;5.82;86.22
33161;BME280;19522;45.656;11.302;2023-04-15T05:59:16;97285.03;;;5.58;87.29
33161;BME280;19522;45.656;11.302;2023-04-15T06:01:41;97304.72;;;5.74;87.09
33161;BME280;19522;45.656;11.302;2023-04-15T06:04:07;97297.38;;;5.68;87.14
33161;BME280;19522;45.656;11.302;2023-04-15T06:06:33;97297.75;;;5.65;87.52
33161;BME280;19522;45.656;11.302;2023-04-15T06:08:59;97308.53;;;5.80;87.58
33161;BME280;19522;45.656;11.302;2023-04-15T06:11:24;97304.94;;;6.02;87.16
33161;BME280;19522;45.656;11.302;2023-04-15T06:13:51;97309.75;;;6.07;86.33
33161;BME280;19522;45.656;11.302;2023-04-15T06:16:17;97308.28;;;6.19;85.65
33161;BME280;19522;45.656;11.302;2023-04-15T06:18:42;97296.50;;;6.42;84.63
33161;BME280;19522;45.656;11.302;2023-04-15T06:21:08;97279.19;;;6.36;83.99
33161;BME280;19522;45.656;11.302;2023-04-15T06:23:34;97275.31;;;6.61;82.70
33161;BME280;19522;45.656;11.302;2023-04-15T06:26:05;97293.06;;;7.13;81.59
33161;BME280;19522;45.656;11.302;2023-04-15T06:28:31;97288.44;;;7.64;79.68
33161;BME280;19522;45.656;11.302;2023-04-15T06:30:57;97289.50;;;8.05;77.08
33161;BME280;19522;45.656;11.302;2023-04-15T06:33:23;97287.63;;;8.54;75.85
33161;BME280;19522;45.656;11.302;2023-04-15T06:35:51;97291.25;;;9.01;73.74
33161;BME280;19522;45.656;11.302;2023-04-15T06:38:17;97292.31;;;9.41;72.36
33161;BME280;19522;45.656;11.302;2023-04-15T06:40:43;97287.94;;;9.66;71.53
33161;BME280;19522;45.656;11.302;2023-04-15T06:43:09;97295.78;;;10.02;71.11
33161;BME280;19522;45.656;11.302;2023-04-15T06:45:34;97281.09;;;10.16;69.91
33161;BME280;19522;45.656;11.302;2023-04-15T06:48:00;97300.22;;;10.35;69.66
33161;BME280;19522;45.656;11.302;2023-04-15T06:50:26;97293.91;;;10.54;67.89
33161;BME280;19522;45.656;11.302;2023-04-15T06:52:59;97289.47;;;10.67;68.12
33161;BME280;19522;45.656;11.302;2023-04-15T06:55:25;97285.88;;;10.73;67.43
33161;BME280;19522;45.656;11.302;2023-04-15T06:57:50;97289.50;;;10.60;67.75
33161;BME280;19522;45.656;11.302;2023-04-15T07:00:16;97279.22;;;10.69;68.65
33161;BME280;19522;45.656;11.302;2023-04-15T07:02:42;97287.16;;;10.70;69.86
33161;BME280;19522;45.656;11.302;2023-04-15T07:05:08;97288.44;;;10.68;70.61
33161;BME280;19522;45.656;11.302;2023-04-15T07:07:34;97287.50;;;10.81;70.07
33161;BME280;19522;45.656;11.302;2023-04-15T07:10:00;97259.72;;;11.11;69.73
33161;BME280;19522;45.656;11.302;2023-04-15T07:12:27;97278.81;;;11.54;67.74
33161;BME280;19522;45.656;11.302;2023-04-15T07:14:53;97278.72;;;11.43;67.30
33161;BME280;19522;45.656;11.302;2023-04-15T07:17:18;97273.84;;;11.45;66.43
33161;BME280;19522;45.656;11.302;2023-04-15T07:19:44;97279.78;;;11.85;66.04
33161;BME280;19522;45.656;11.302;2023-04-15T07:22:09;97284.59;;;11.40;68.57
33161;BME280;19522;45.656;11.302;2023-04-15T07:24:35;97283.63;;;11.27;68.65
33161;BME280;19522;45.656;11.302;2023-04-15T07:27:00;97269.50;;;11.18;70.46
33161;BME280;19522;45.656;11.302;2023-04-15T07:29:26;97283.31;;;11.42;70.74
33161;BME280;19522;45.656;11.302;2023-04-15T07:31:51;97260.78;;;11.35;69.04
33161;BME280;19522;45.656;11.302;2023-04-15T07:34:18;97279.31;;;11.19;69.25
33161;BME280;19522;45.656;11.302;2023-04-15T07:36:44;97288.25;;;10.95;70.23
33161;BME280;19522;45.656;11.302;2023-04-15T07:39:10;97288.09;;;10.89;70.79
33161;BME280;19522;45.656;11.302;2023-04-15T07:41:36;97269.31;;;11.13;69.66
33161;BME280;19522;45.656;11.302;2023-04-15T07:44:02;97280.53;;;11.49;70.61
33161;BME280;19522;45.656;11.302;2023-04-15T07:46:28;97275.50;;;11.71;68.68
33161;BME280;19522;45.656;11.302;2023-04-15T07:48:53;97277.72;;;11.81;68.00
33161;BME280;19522;45.656;11.302;2023-04-15T07:51:19;97270.25;;;11.95;67.74
33161;BME280;19522;45.656;11.302;2023-04-15T07:53:46;97270.03;;;11.96;67.44
33161;BME280;19522;45.656;11.302;2023-04-15T07:56:12;97253.72;;;11.52;67.27
33161;BME280;19522;45.656;11.302;2023-04-15T07:58:38;97271.66;;;11.60;67.16
33161;BME280;19522;45.656;11.302;2023-04-15T08:01:03;97276.84;;;11.62;69.90
33161;BME280;19522;45.656;11.302;2023-04-15T08:03:29;97217.03;;;11.18;69.33
33161;BME280;19522;45.656;11.302;2023-04-15T08:05:56;97242.09;;;11.20;68.03
33161;BME280;19522;45.656;11.302;2023-04-15T08:08:21;97272.50;;;11.79;68.52
33161;BME280;19522;45.656;11.302;2023-04-15T08:10:47;97272.03;;;12.08;65.73
33161;BME280;19522;45.656;11.302;2023-04-15T08:13:12;97264.47;;;11.66;66.33
33161;BME280;19522;45.656;11.302;2023-04-15T08:15:38;97271.81;;;11.40;68.33
33161;BME280;19522;45.656;11.302;2023-04-15T08:18:04;97269.63;;;11.74;67.41
33161;BME280;19522;45.656;11.302;2023-04-15T08:20:29;97269.28;;;12.26;65.91
33161;BME280;19522;45.656;11.302;2023-04-15T08:22:55;97269.53;;;12.06;65.72
33161;BME280;19522;45.656;11.302;2023-04-15T08:25:20;97252.09;;;11.70;66.61
33161;BME280;19522;45.656;11.302;2023-04-15T08:27:46;97275.38;;;11.41;66.35
33161;BME280;19522;45.656;11.302;2023-04-15T08:30:12;97260.50;;;11.43;68.05
33161;BME280;19522;45.656;11.302;2023-04-15T08:32:38;97260.53;;;11.62;67.96
33161;BME280;19522;45.656;11.302;2023-04-15T08:35:04;97279.44;;;11.75;67.61
33161;BME280;19522;45.656;11.302;2023-04-15T08:37:29;97274.09;;;11.43;67.07
33161;BME280;19522;45.656;11.302;2023-04-15T08:39:55;97287.00;;;11.48;67.62
33161;BME280;19522;45.656;11.302;2023-04-15T08:42:30;97276.09;;;11.54;66.13
33161;BME280;19522;45.656;11.302;2023-04-15T08:44:58;97252.44;;;11.99;65.92
33161;BME280;19522;45.656;11.302;2023-04-15T08:47:25;97282.13;;;12.38;64.10
33161;BME280;19522;45.656;11.302;2023-04-15T08:49:54;97247.09;;;12.11;62.29
33161;BME280;19522;45.656;11.302;2023-04-15T08:52:20;97288.13;;;11.84;64.57
33161;BME280;19522;45.656;11.302;2023-04-15T08:54:46;97278.59;;;12.00;64.02
33161;BME280;19522;45.656;11.302;2023-04-15T08:57:12;97276.06;;;12.54;62.65
33161;BME280;19522;45.656;11.302;2023-04-15T08:59:40;97275.91;;;12.68;56.64
33161;BME280;19522;45.656;11.302;2023-04-15T09:02:06;97258.72;;;13.09;59.41
33161;BME280;19522;45.656;11.302;2023-04-15T09:04:35;97259.53;;;13.52;57.26
33161;BME280;19522;45.656;11.302;2023-04-15T09:07:01;97269.38;;;13.53;56.34
33161;BME280;19522;45.656;11.302;2023-04-15T09:09:26;97261.13;;;13.30;56.23
33161;BME280;19522;45.656;11.302;2023-04-15T09:11:52;97263.47;;;13.26;56.95
33161;BME280;19522;45.656;11.302;2023-04-15T09:14:17;97264.63;;;13.06;55.80
33161;BME280;19522;45.656;11.302;2023-04-15T09:17:02;97255.38;;;13.62;55.53
33161;BME280;19522;45.656;11.302;2023-04-15T09:19:30;97255.72;;;13.65;56.36
33161;BME280;19522;45.656;11.302;2023-04-15T09:21:57;97261.50;;;13.81;54.18
33161;BME280;19522;45.656;11.302;2023-04-15T09:24:23;97258.09;;;13.74;53.20
33161;BME280;19522;45.656;11.302;2023-04-15T09:26:53;97262.00;;;13.78;55.09
33161;BME280;19522;45.656;11.302;2023-04-15T09:29:24;97253.44;;;13.98;54.82
33161;BME280;19522;45.656;11.302;2023-04-15T09:31:51;97258.22;;;13.79;55.00
33161;BME280;19522;45.656;11.302;2023-04-15T09:34:17;97238.63;;;13.82;54.91
33161;BME280;19522;45.656;11.302;2023-04-15T09:39:11;97261.06;;;13.84;54.18
33161;BME280;19522;45.656;11.302;2023-04-15T09:41:37;97255.38;;;13.50;54.61
33161;BME280;19522;45.656;11.302;2023-04-15T09:44:23;97255.72;;;13.42;55.09
33161;BME280;19522;45.656;11.302;2023-04-15T09:46:49;97186.72;;;12.75;54.57
33161;BME280;19522;45.656;11.302;2023-04-15T09:49:15;97251.56;;;13.63;54.31
33161;BME280;19522;45.656;11.302;2023-04-15T09:51:45;97247.53;;;13.89;53.17
33161;BME280;19522;45.656;11.302;2023-04-15T09:54:11;97262.16;;;14.24;54.50
33161;BME280;19522;45.656;11.302;2023-04-15T09:56:38;97263.25;;;14.63;55.55
33161;BME280;19522;45.656;11.302;2023-04-15T09:59:07;97208.59;;;14.34;52.84
33161;BME280;19522;45.656;11.302;2023-04-15T10:01:33;97270.75;;;14.56;50.80
33161;BME280;19522;45.656;11.302;2023-04-15T10:04:02;97263.69;;;14.72;51.39
33161;BME280;19522;45.656;11.302;2023-04-15T10:06:28;97250.13;;;14.08;51.74
33161;BME280;19522;45.656;11.302;2023-04-15T10:08:56;97267.81;;;13.93;55.47
33161;BME280;19522;45.656;11.302;2023-04-15T10:11:23;97266.13;;;13.92;52.26
33161;BME280;19522;45.656;11.302;2023-04-15T10:13:50;97248.25;;;13.84;52.06
33161;BME280;19522;45.656;11.302;2023-04-15T10:16:19;97259.25;;;14.01;54.48
33161;BME280;19522;45.656;11.302;2023-04-15T10:18:50;97258.31;;;13.84;53.35
33161;BME280;19522;45.656;11.302;2023-04-15T10:21:18;97256.69;;;13.59;52.09
33161;BME280;19522;45.656;11.302;2023-04-15T10:23:45;97256.72;;;13.29;54.93
33161;BME280;19522;45.656;11.302;2023-04-15T10:26:12;97247.41;;;13.84;57.01
33161;BME280;19522;45.656;11.302;2023-04-15T10:28:39;97220.97;;;13.73;53.33
33161;BME280;19522;45.656;11.302;2023-04-15T10:31:05;97262.97;;;14.36;51.80
33161;BME280;19522;45.656;11.302;2023-04-15T10:33:32;97231.47;;;14.05;51.45
33161;BME280;19522;45.656;11.302;2023-04-15T10:35:59;97218.94;;;14.32;52.98
33161;BME280;19522;45.656;11.302;2023-04-15T10:38:39;97241.03;;;14.72;50.73
33161;BME280;19522;45.656;11.302;2023-04-15T10:41:26;97243.53;;;14.90;50.70
33161;BME280;19522;45.656;11.302;2023-04-15T10:46:39;97249.91;;;14.79;49.74
33161;BME280;19522;45.656;11.302;2023-04-15T10:49:12;97238.13;;;15.07;51.17
33161;BME280;19522;45.656;11.302;2023-04-15T10:51:46;97224.88;;;14.29;46.43
33161;BME280;19522;45.656;11.302;2023-04-15T10:54:29;97242.78;;;14.37;49.25
33161;BME280;19522;45.656;11.302;2023-04-15T11:02:46;97255.03;;;13.58;51.24
33161;BME280;19522;45.656;11.302;2023-04-15T11:05:14;97251.31;;;13.64;49.38
33161;BME280;19522;45.656;11.302;2023-04-15T11:12:50;97222.88;;;14.94;49.14
33161;BME280;19522;45.656;11.302;2023-04-15T11:15:31;97218.97;;;15.24;48.17
33161;BME280;19522;45.656;11.302;2023-04-15T11:17:58;97238.78;;;15.32;47.51
33161;BME280;19522;45.656;11.302;2023-04-15T11:20:24;97224.19;;;15.43;48.03
33161;BME280;19522;45.656;11.302;2023-04-15T11:22:52;97217.72;;;15.15;49.15
33161;BME280;19522;45.656;11.302;2023-04-15T11:25:25;97253.47;;;14.79;50.17
33161;BME280;19522;45.656;11.302;2023-04-15T11:27:52;97246.34;;;14.78;50.67
33161;BME280;19522;45.656;11.302;2023-04-15T11:30:23;97236.47;;;14.48;50.33
33161;BME280;19522;45.656;11.302;2023-04-15T11:32:50;97246.94;;;14.80;50.59
33161;BME280;19522;45.656;11.302;2023-04-15T11:35:18;97246.50;;;14.72;50.28
33161;BME280;19522;45.656;11.302;2023-04-15T11:37:44;97252.31;;;14.34;49.83
33161;BME280;19522;45.656;11.302;2023-04-15T11:40:10;97232.06;;;14.07;50.95
33161;BME280;19522;45.656;11.302;2023-04-15T11:42:36;97228.59;;;14.23;52.43
33161;BME280;19522;45.656;11.302;2023-04-15T11:45:11;97244.00;;;14.29;50.65
33161;BME280;19522;45.656;11.302;2023-04-15T11:47:38;97224.09;;;14.17;51.47
33161;BME280;19522;45.656;11.302;2023-04-15T11:52:57;97239.78;;;15.08;48.99
33161;BME280;19522;45.656;11.302;2023-04-15T11:55:24;97224.00;;;15.50;48.74
33161;BME280;19522;45.656;11.302;2023-04-15T11:58:04;97238.09;;;16.15;48.21
33161;BME280;19522;45.656;11.302;2023-04-15T12:00:31;97229.78;;;15.87;48.75
33161;BME280;19522;45.656;11.302;2023-04-15T12:08:51;97243.00;;;15.91;48.56
33161;BME280;19522;45.656;11.302;2023-04-15T12:13:49;97248.25;;;15.58;47.60
33161;BME280;19522;45.656;11.302;2023-04-15T12:16:19;97226.44;;;15.29;46.19
33161;BME280;19522;45.656;11.302;2023-04-15T12:18:56;97232.53;;;15.53;47.12
33161;BME280;19522;45.656;11.302;2023-04-15T12:21:24;97240.03;;;15.41;48.45
33161;BME280;19522;45.656;11.302;2023-04-15T12:23:51;97251.47;;;15.38;48.01
33161;BME280;19522;45.656;11.302;2023-04-15T12:26:18;97235.16;;;15.43;47.43
33161;BME280;19522;45.656;11.302;2023-04-15T12:28:53;97244.88;;;14.88;45.90
33161;BME280;19522;45.656;11.302;2023-04-15T12:31:19;97245.03;;;14.81;47.13
33161;BME280;19522;45.656;11.302;2023-04-15T12:33:47;97238.22;;;14.67;47.71
33161;BME280;19522;45.656;11.302;2023-04-15T12:36:13;97227.53;;;14.53;48.37
33161;BME280;19522;45.656;11.302;2023-04-15T12:38:38;97247.75;;;14.81;48.71
33161;BME280;19522;45.656;11.302;2023-04-15T12:41:04;97250.50;;;14.81;49.00
33161;BME280;19522;45.656;11.302;2023-04-15T12:43:30;97247.88;;;15.03;49.42
33161;BME280;19522;45.656;11.302;2023-04-15T12:45:55;97249.81;;;14.91;46.61
33161;BME280;19522;45.656;11.302;2023-04-15T12:48:21;97245.69;;;14.88;48.08
33161;BME280;19522;45.656;11.302;2023-04-15T12:50:46;97244.63;;;14.89;47.32
33161;BME280;19522;45.656;11.302;2023-04-15T12:53:12;97249.97;;;15.13;49.61
33161;BME280;19522;45.656;11.302;2023-04-15T12:55:38;97246.94;;;14.98;48.35
33161;BME280;19522;45.656;11.302;2023-04-15T12:58:03;97253.47;;;14.96;48.38
33161;BME280;19522;45.656;11.302;2023-04-15T13:00:29;97218.69;;;14.75;47.91
33161;BME280;19522;45.656;11.302;2023-04-15T13:02:54;97249.19;;;15.01;48.45
33161;BME280;19522;45.656;11.302;2023-04-15T13:05:20;97251.06;;;15.29;48.22
33161;BME280;19522;45.656;11.302;2023-04-15T13:07:45;97205.63;;;14.65;48.07
33161;BME280;19522;45.656;11.302;2023-04-15T13:10:11;97265.97;;;14.75;49.13
33161;BME280;19522;45.656;11.302;2023-04-15T13:12:36;97268.84;;;14.69;50.41
33161;BME280;19522;45.656;11.302;2023-04-15T13:15:05;97251.75;;;14.90;50.31
33161;BME280;19522;45.656;11.302;2023-04-15T13:17:30;97250.19;;;14.94;49.83
33161;BME280;19522;45.656;11.302;2023-04-15T13:19:56;97260.81;;;15.08;49.99